Logo AVAMET
Benvolgut visitant, si us plau, ingressa Recuperar contrasenya

Peníscola Gran Hotel Peñiscola

Dades diàries. Acumulats / Últims 30 dies disponibles

Data Temperatura (°C) Humitat rel. (%) Pressió rel. (hPa) Vent (km/h) Precipitació
Mínima Mitjana Màxima Amplitud
tèrmica
Mínima Mitjana Màxima Mínima Mitjana Màxima Predom. Mitjana Ràfega
màxima
Total
(mm)
Índex-n
Mínima Mitjana Màxima Mínima Mitjana Màxima n
0 a 1
P0 max
mm 5'
Dades mensuals acumulades fins l'últim dia disponible
10/2019 16,1 18,4 21,1 22,1 21,1 25,9 28,6 12,5 1 67 92 1.006 1.014 1.020   39,0 1,2
Dades anuals acumulades fins l'últim dia disponible
2019 2,3 14,4 26,2 18,5 9,3 22,7 32,6 30,3 1 66 94 987 1.015 1.034   6,1 71,0 177,2
Últims 30 dies disponibles
15-10-2019 16,1     18,6     21,1 5,0 45 65 85 1.009 1.012 1.014 32,0 0,0
14-10-2019 18,6     23,2     27,8 9,2 1 47 92 1.008 1.012 1.015 27,0 1,2
13-10-2019 20,3     23,6     26,8 6,5 72 80 87 1.014 1.015 1.016 15,0 0,0
12-10-2019 19,2     22,2     25,3 6,1 74 83 91 1.015 1.017 1.018 27,0 0,0
11-10-2019 18,7     21,5     24,3 5,6 73 79 84 1.017 1.019 1.020 34,0 0,0
06-10-2019 16,3     21,5     26,7 10,4 64 77 90 1.014 1.016 1.017 26,0 0,0
05-10-2019 17,5     22,2     26,9 9,4 52 65 77 1.012 1.014 1.015 18,0 0,0
04-10-2019 16,2     21,4     26,6 10,4 43 61 78 1.012 1.014 1.015 23,0 0,0
03-10-2019 17,2     21,6     26,1 8,9 34 51 68 1.013 1.014 1.015 39,0 0,0
02-10-2019 21,1     24,9     28,6 7,5 32 49 66 1.008 1.011 1.014 39,0 0,0
01-10-2019 20,7     22,9     25,0 4,3 75 83 91 1.006 1.010 1.013 21,0 0,0
30-09-2019 19,1     23,6     28,2 9,1 71 81 91 1.013 1.015 1.016 21,0 0,0
29-09-2019 19,1     22,0     24,9 5,8 78 85 91 1.013 1.015 1.017 34,0 0,0
28-09-2019 19,8     23,8     27,7 7,9 63 77 90 1.016 1.018 1.019 16,0 0,0
27-09-2019 19,6     24,1     28,6 9,0 69 80 91 1.014 1.016 1.017 27,0 0,0
26-09-2019 17,7     21,5     25,3 7,6 64 75 86 1.015 1.016 1.017 37,0 0,0
25-09-2019 20,8     24,4     27,9 7,1 45 67 88 1.010 1.013 1.015 27,0 0,0
24-09-2019 17,9     21,4     25,0 7,1 69 79 89 1.011 1.014 1.016 27,0 0,0
23-09-2019 17,9     22,9     28,0 10,1 54 68 81 1.013 1.016 1.018 27,0 0,0
22-09-2019 20,7     24,0     27,3 6,6 66 79 92 1.008 1.011 1.013 21,0 0,0
21-09-2019 19,8     23,9     28,1 8,3 65 78 90 1.009 1.012 1.014 24,0 7,6 0,85 1,80
20-09-2019 22,0     23,6     25,3 3,3 77 82 86 1.014 1.016 1.017 27,0 0,6
19-09-2019 19,2     23,3     27,4 8,2 69 77 84 1.013 1.015 1.017 26,0 0,0
18-09-2019 19,1     23,8     28,4 9,3 52 67 82 1.011 1.013 1.014 23,0 0,0
17-09-2019 17,9     22,8     27,6 9,7 56 72 88 1.012 1.014 1.016 26,0 0,0
16-09-2019 21,6     24,9     28,3 6,7 55 71 87 1.015 1.017 1.018 26,0 0,0
15-09-2019 20,8     23,6     26,4 5,6 67 78 88 1.017 1.020 1.022 37,0 0,0
14-09-2019 18,1     22,4     26,7 8,6 52 71 89 1.020 1.022 1.024 34,0 0,0
13-09-2019 19,0     21,9     24,9 5,9 55 74 89 1.022 1.024 1.027 ONO 3,5 40,2 12,6 0,34 0,60
12-09-2019 19,6     24,1     28,6 9,0 45 63 80 1.021 1.024 1.026 19,0 0,0
Últims 13 mesos disponibles
09/2019 15,3 19,4 22,5 23,4 23,9 27,3 31,4 16,1 54 71 85 1.008 1.016 1.024 0,1 53,0 45,6
08/2019 19,0 21,9 26,2 25,7 26,8 29,5 31,6 12,6 53 72 80 1.009 1.014 1.018 45,0 70,2
07/2019 19,1 22,0 25,2 26,0 27,6 30,0 32,6 13,5 47 67 82 1.004 1.012 1.019 37,0 0,2
06/2019 12,3 17,5 22,5 21,3 21,0 25,1 30,7 18,4 48 68 80 1.008 1.013 1.020 S 0,2 39,0 4,4
05/2019 8,3 13,9 17,3 17,9 18,2 21,9 28,0 19,7 34 63 83 1.003 1.013 1.022 48,0 26,4
04/2019 5,1 11,1 14,9 15,0 12,1 19,0 23,0 17,9 47 66 84 997 1.011 1.023 0,3 56,0 21,8
03/2019 5,7 9,0 13,2 13,7 14,4 18,3 21,4 15,7 46 61 81 1.008 1.021 1.028 48,0 5,6
02/2019 2,3 6,2 10,8 11,0 9,3 15,8 20,9 18,6 37 69 82 991 1.022 1.032 71,0 0,0
01/2019 2,9 6,4 10,4 11,0 12,7 15,6 20,2 17,3 40 60 84 999 1.016 1.029 60,0 1,8
12/2018 4,3 8,6 12,9 12,9 13,3 17,2 24,4 20,1 52 72 90 1.007 1.023 1.029 OSO 0,1 58,0 5,2
11/2018 7,1 10,9 15,7 14,8 15,1 18,7 21,3 14,2 52 74 89 1.000 1.013 1.022 61,0 100,4
10/2018 9,6 14,5 17,9 18,9 15,6 23,4 28,2 18,6 38 68 92 996 1.012 1.024 66,0 119,2
09/2018 16,2 20,3 24,4 24,3 24,3 28,3 31,1 14,9 43 66 83 1.010 1.017 1.027 52,0 41,4
Tots els anys disponibles
2018 -1,8 14,1 26,7 18,0 7,4 22,0 35,1 36,9 35 68 93 991 1.014 1.033 0,5 74,0 371,8
2017 1,2 13,9 25,2 17,9 7,3 22,0 37,3 36,1 31 67 93 993 1.017 1.034 0,0 68,0 110,4
2016 1,9 14,1 24,9 18,1 10,3 22,0 32,4 30,5 36 66 92 992 1.016 1.035 63,0 274,2
2015 1,2 12,3 27,8 16,2 8,6 20,0 31,6 30,4 33 68 94 993 1.019 1.036 88,0 296,7
Temperatura (°C)
Humitat relativa (%)
Velocitat del vent i ràfega màxima (km/h)
Direcció del vent (°)
Pressió (hPa)
Precipitació (mm)
Nota sobre les dades: s'avisa a l'usuari de la provisionalitat i no oficialitat d'aquestes dades
Logo AVAMET blanc
Web allotjada a Sollutia
Llicència de Creative CommonsLa web d'AVAMET i els seus continguts estan subjectes a una llicència de
Reconeixement - No Comercial - Compartir igual
Últimes estacions: Villena - Villa Ventín (Soci), Benissa - Convent (Soci), Xàbia Fontanella (Soci), Castielfabib (Soci), Sant Mateu (Soci), Vallada (Soci), Agullent (Soci), - - -